KFRI

Marshall AAF Airport

Fort Riley(Junction City), Kansas, USA
METAR KFRI 180756Z AUTO 00000KT 10SM CLR 02/00 A3003 RMK AO2 SLP172 T00151001
Observed Flight Rules
Dec-18 @ 07:56 UTC (47 minutes ago) Visual Flight Rules
Wind Visibility Clouds
Calm 10 miles
  • Clear skies
Temperatures Readings
Current 2°C / 36°F
Dewpoint -0°C / 32°F
Humidity 87%
Altimeter 30.03" Hg
Pressure 1017.2 hPa
Elevation 325
METAR KFRI 180756Z AUTO 00000KT 10SM CLR 02/00 A3003 RMK AO2 SLP172 T00151001
Observed Flight Rules
Dec-18 @ 07:56 UTC
(47 minutes ago)
VFR
Wind Visibility
Calm 10 miles
Clouds
  • Clear skies
Temperature Dewpoint
2°C / 36°F -0°C / 32°F
Humidity Altimeter Pressure
87% 30.03" Hg 1017.2 hPa